createdAt,value
2023-04-06T00:02:04.756Z,59.72
2023-04-06T00:04:32.593Z,59.50
2023-04-06T00:07:00.643Z,59.73
2023-04-06T00:09:28.534Z,59.73
2023-04-06T00:11:56.508Z,59.97
2023-04-06T00:14:24.571Z,59.83
2023-04-06T00:16:52.415Z,60.03
2023-04-06T00:19:20.202Z,60.27
2023-04-06T00:21:48.161Z,60.09
2023-04-06T00:24:16.294Z,60.07
2023-04-06T00:26:44.134Z,59.65
2023-04-06T00:29:12.071Z,59.42
2023-04-06T00:31:39.932Z,59.41
2023-04-06T00:34:07.974Z,59.52
2023-04-06T00:36:36.195Z,59.35
2023-04-06T00:39:04.063Z,59.27
2023-04-06T00:41:32.010Z,59.23
2023-04-06T00:43:59.905Z,59.24
2023-04-06T00:46:27.746Z,59.21
2023-04-06T00:48:55.802Z,59.16
2023-04-06T00:51:23.889Z,59.37
2023-04-06T00:53:51.757Z,59.37
2023-04-06T00:56:19.527Z,59.34
2023-04-06T00:58:47.363Z,59.43
2023-04-06T01:01:15.180Z,59.55
2023-04-06T01:03:43.519Z,59.66
2023-04-06T01:06:11.437Z,59.40
2023-04-06T01:08:39.467Z,59.15
2023-04-06T01:11:07.276Z,59.26
2023-04-06T01:13:35.031Z,59.41
2023-04-06T01:16:04.232Z,59.43
2023-04-06T01:18:32.232Z,59.45
2023-04-06T01:21:00.831Z,59.52
2023-04-06T01:23:28.742Z,59.54
2023-04-06T01:25:56.577Z,59.73
2023-04-06T01:28:24.445Z,59.80
2023-04-06T01:30:52.428Z,59.81
2023-04-06T01:33:20.340Z,59.93
2023-04-06T01:35:48.311Z,59.87
2023-04-06T01:45:34.558Z,60.38
2023-04-06T01:48:02.357Z,60.51
2023-04-06T01:50:30.534Z,60.43
2023-04-06T01:52:58.662Z,60.29
2023-04-06T01:55:27.125Z,60.06
2023-04-06T01:57:54.872Z,60.07
2023-04-06T02:00:23.414Z,60.12
2023-04-06T02:02:51.475Z,60.09
2023-04-06T02:05:20.849Z,60.03
2023-04-06T02:07:48.700Z,59.91
2023-04-06T02:10:16.502Z,60.13
2023-04-06T02:12:44.320Z,60.31
2023-04-06T02:15:14.245Z,60.22
2023-04-06T02:17:42.813Z,60.42
2023-04-06T02:20:10.966Z,60.45
2023-04-06T02:22:38.761Z,60.53
2023-04-06T02:25:06.854Z,60.44
2023-04-06T02:27:34.822Z,60.61
2023-04-06T02:30:06.402Z,60.57
2023-04-06T02:32:34.226Z,61.12
2023-04-06T02:35:02.265Z,61.26
2023-04-06T02:37:30.514Z,61.44
2023-04-06T02:39:58.218Z,61.62
2023-04-06T02:42:26.212Z,61.93
2023-04-06T02:44:53.965Z,62.06
2023-04-06T02:47:21.951Z,62.05
2023-04-06T02:49:49.728Z,62.40
2023-04-06T02:52:18.945Z,62.72
2023-04-06T02:54:46.691Z,62.82
2023-04-06T02:57:14.465Z,63.23
2023-04-06T02:59:42.350Z,63.43
2023-04-06T03:02:10.465Z,63.40
2023-04-06T03:04:38.293Z,63.70
2023-04-06T03:07:06.397Z,63.69
2023-04-06T03:09:34.659Z,64.07
2023-04-06T03:12:02.780Z,64.42
2023-04-06T03:14:30.784Z,64.48
2023-04-06T03:16:58.569Z,64.67
2023-04-06T03:19:26.303Z,64.60
2023-04-06T03:21:54.101Z,65.00
2023-04-06T03:24:21.993Z,65.23
2023-04-06T03:26:50.196Z,65.09
2023-04-06T03:29:18.251Z,65.56
2023-04-06T03:31:46.238Z,65.67
2023-04-06T03:34:14.051Z,65.89
2023-04-06T03:36:41.969Z,65.84
2023-04-06T03:39:09.889Z,66.09
2023-04-06T03:41:37.914Z,66.16
2023-04-06T03:44:06.912Z,66.67
2023-04-06T03:46:34.780Z,66.85
2023-04-06T03:49:03.166Z,66.95
2023-04-06T03:51:30.915Z,67.04
2023-04-06T03:53:58.728Z,67.18
2023-04-06T03:56:27.466Z,67.50
2023-04-06T03:58:55.447Z,67.37
2023-04-06T04:01:23.362Z,67.60
2023-04-06T04:03:52.038Z,67.38
2023-04-06T04:06:20.073Z,67.42
2023-04-06T04:08:47.828Z,67.55
2023-04-06T04:11:17.066Z,67.42
2023-04-06T04:13:45.805Z,67.58
2023-04-06T04:16:13.722Z,67.61
2023-04-06T04:18:41.511Z,67.65
2023-04-06T04:21:09.505Z,67.70
2023-04-06T04:23:37.834Z,67.88
2023-04-06T04:26:06.110Z,67.79
2023-04-06T04:28:33.861Z,67.68
2023-04-06T04:31:01.924Z,67.69
2023-04-06T04:33:29.765Z,67.62
2023-04-06T04:35:57.937Z,67.43
2023-04-06T04:38:25.827Z,67.51
2023-04-06T04:40:53.622Z,67.24
2023-04-06T04:43:21.455Z,67.13
2023-04-06T04:45:49.171Z,67.33
2023-04-06T04:48:16.915Z,67.29
2023-04-06T04:50:44.852Z,67.14
2023-04-06T04:53:12.739Z,67.00
2023-04-06T04:55:40.418Z,66.99
2023-04-06T04:58:10.327Z,66.64
2023-04-06T05:00:38.183Z,66.15
2023-04-06T05:03:06.592Z,66.03
2023-04-06T05:05:34.567Z,65.79
2023-04-06T05:08:02.918Z,65.56
2023-04-06T05:10:30.698Z,65.55
2023-04-06T05:12:58.625Z,65.60
2023-04-06T05:15:26.660Z,65.06
2023-04-06T05:17:54.554Z,64.89
2023-04-06T05:20:22.584Z,64.48
2023-04-06T05:22:50.285Z,64.12
2023-04-06T05:25:18.118Z,63.88
2023-04-06T05:27:46.015Z,63.71
2023-04-06T05:30:14.117Z,63.06
2023-04-06T05:32:43.626Z,62.32
2023-04-06T05:35:12.402Z,62.86
2023-04-06T05:37:41.692Z,62.23
2023-04-06T05:40:10.579Z,61.75
2023-04-06T05:42:39.547Z,61.30
2023-04-06T05:45:09.700Z,60.62
2023-04-06T05:47:38.961Z,60.15
2023-04-06T05:50:07.274Z,59.99
2023-04-06T05:52:35.070Z,59.83
2023-04-06T05:55:04.247Z,59.29
2023-04-06T05:57:32.099Z,58.80
2023-04-06T06:00:00.446Z,58.64
2023-04-06T06:02:34.037Z,58.42
2023-04-06T06:05:01.952Z,58.03
2023-04-06T06:07:29.792Z,57.68
2023-04-06T06:09:59.151Z,57.76
2023-04-06T06:12:27.038Z,57.07
2023-04-06T06:14:55.517Z,57.08
2023-04-06T06:17:23.763Z,57.23
2023-04-06T06:19:51.760Z,57.11
2023-04-06T06:22:19.652Z,56.98
2023-04-06T06:24:47.570Z,56.95
2023-04-06T06:27:15.617Z,56.56
2023-04-06T06:29:43.592Z,56.63
2023-04-06T06:32:11.711Z,56.83
2023-04-06T06:34:39.464Z,56.74
2023-04-06T06:37:07.261Z,56.53
2023-04-06T06:39:35.178Z,56.95
2023-04-06T06:42:03.345Z,57.26
2023-04-06T06:44:31.113Z,57.26
2023-04-06T06:47:00.445Z,57.64
2023-04-06T06:49:29.864Z,57.39
2023-04-06T06:51:57.839Z,57.10
2023-04-06T06:54:25.793Z,57.06
2023-04-06T06:56:53.578Z,56.23
2023-04-06T06:59:21.760Z,55.67
2023-04-06T07:01:51.277Z,55.41
2023-04-06T07:04:20.172Z,55.80
2023-04-06T07:06:48.073Z,55.45
2023-04-06T07:09:16.021Z,55.12
2023-04-06T07:11:43.962Z,55.40
2023-04-06T07:14:12.995Z,55.01
2023-04-06T07:16:40.964Z,55.12
2023-04-06T07:19:10.636Z,55.19
2023-04-06T07:21:38.615Z,55.74
2023-04-06T07:24:06.978Z,55.67
2023-04-06T07:26:35.052Z,55.69
2023-04-06T07:29:03.025Z,55.66
2023-04-06T07:31:31.246Z,55.97
2023-04-06T07:33:59.731Z,55.90
2023-04-06T07:36:27.810Z,55.78
2023-04-06T07:38:55.630Z,55.91
2023-04-06T07:41:24.455Z,56.35
2023-04-06T07:43:52.332Z,56.44
2023-04-06T07:46:20.207Z,55.93
2023-04-06T07:48:48.027Z,55.42
2023-04-06T07:51:17.550Z,55.02
2023-04-06T07:53:45.879Z,55.51
2023-04-06T07:56:13.749Z,55.00
2023-04-06T07:58:42.200Z,54.90
2023-04-06T08:01:10.585Z,54.96
2023-04-06T08:03:38.691Z,56.14
2023-04-06T08:06:08.319Z,57.74
2023-04-06T08:08:36.289Z,59.31
2023-04-06T08:11:04.498Z,59.52
2023-04-06T08:13:32.434Z,60.33
2023-04-06T08:16:01.375Z,59.88
2023-04-06T08:18:31.052Z,59.84
2023-04-06T08:20:58.981Z,59.71
2023-04-06T08:23:26.904Z,59.49
2023-04-06T08:26:05.283Z,59.45
2023-04-06T08:28:35.709Z,59.36
2023-04-06T08:31:07.534Z,59.36
2023-04-06T08:33:40.420Z,59.84
2023-04-06T08:36:13.319Z,60.25
2023-04-06T08:38:42.430Z,60.40
2023-04-06T08:41:12.157Z,60.84
2023-04-06T08:43:45.366Z,61.25
2023-04-06T08:46:14.926Z,61.61
2023-04-06T08:48:47.346Z,61.95
2023-04-06T08:51:16.207Z,62.07
2023-04-06T08:53:44.234Z,63.18
2023-04-06T08:56:13.163Z,63.26
2023-04-06T08:58:41.999Z,63.74
2023-04-06T09:01:13.601Z,64.14
2023-04-06T09:03:42.290Z,64.99
2023-04-06T09:06:10.697Z,65.69
2023-04-06T09:08:41.394Z,66.97
2023-04-06T09:11:10.271Z,67.35
2023-04-06T09:13:56.116Z,68.09
2023-04-06T09:16:24.518Z,68.20
2023-04-06T09:18:52.637Z,68.27
2023-04-06T09:21:22.864Z,68.08
2023-04-06T09:24:03.153Z,67.97
2023-04-06T09:26:31.562Z,67.85
2023-04-06T09:29:02.240Z,67.91
2023-04-06T09:31:34.433Z,68.66
2023-04-06T09:34:03.412Z,68.91
2023-04-06T09:36:37.432Z,69.25
2023-04-06T09:39:05.937Z,70.43
2023-04-06T09:41:36.606Z,70.69
2023-04-06T09:44:12.638Z,71.20
2023-04-06T09:46:58.034Z,71.90
2023-04-06T09:49:32.632Z,72.13
2023-04-06T09:52:02.910Z,72.21
2023-04-06T09:54:32.566Z,72.90
2023-04-06T09:57:30.073Z,73.27
2023-04-06T10:00:10.746Z,73.28
2023-04-06T10:03:01.069Z,73.45
2023-04-06T10:05:38.938Z,74.06
2023-04-06T10:08:17.537Z,74.14
2023-04-06T10:10:46.070Z,73.81
2023-04-06T10:13:13.920Z,73.98
2023-04-06T10:15:43.519Z,73.64
2023-04-06T10:18:12.009Z,73.64
2023-04-06T10:20:51.984Z,74.31
2023-04-06T10:23:21.203Z,75.97
2023-04-06T10:26:00.047Z,75.92
2023-04-06T10:28:37.088Z,76.69
2023-04-06T10:31:08.286Z,77.79
2023-04-06T10:33:36.363Z,78.07
2023-04-06T10:36:15.903Z,78.12
2023-04-06T10:38:43.825Z,78.00
2023-04-06T10:41:13.280Z,77.89
2023-04-06T10:43:42.622Z,78.39
2023-04-06T10:46:12.985Z,78.47
2023-04-06T10:48:42.496Z,78.84
2023-04-06T10:51:15.000Z,78.39
2023-04-06T10:53:45.494Z,78.25
2023-04-06T10:56:15.578Z,77.76
2023-04-06T10:58:50.741Z,77.86
2023-04-06T11:01:21.224Z,78.26
2023-04-06T11:03:53.297Z,77.99
2023-04-06T11:06:24.110Z,77.07
2023-04-06T11:08:52.660Z,77.01
2023-04-06T11:11:22.604Z,77.20
2023-04-06T11:13:54.271Z,77.09
2023-04-06T11:16:24.362Z,77.34
2023-04-06T11:18:59.219Z,77.09
2023-04-06T11:21:34.548Z,76.99
2023-04-06T11:24:12.847Z,76.11
2023-04-06T11:26:42.866Z,76.34
2023-04-06T11:29:11.932Z,76.92
2023-04-06T11:32:01.409Z,76.42
2023-04-06T11:34:31.377Z,76.64
2023-04-06T11:37:05.895Z,76.30
2023-04-06T11:39:44.435Z,76.11
2023-04-06T11:42:12.239Z,75.99
2023-04-06T11:44:43.792Z,76.18
2023-04-06T11:47:12.516Z,75.82
2023-04-06T11:49:43.296Z,75.43
2023-04-06T11:52:19.792Z,75.68
2023-04-06T11:54:49.407Z,75.46
2023-04-06T11:57:18.904Z,75.10
2023-04-06T11:59:46.899Z,74.50
2023-04-06T12:02:14.959Z,73.63
2023-04-06T12:04:42.973Z,72.97
2023-04-06T12:07:11.384Z,72.68
2023-04-06T12:09:56.223Z,72.97
2023-04-06T12:12:24.029Z,73.60
2023-04-06T12:14:51.913Z,73.29
2023-04-06T12:17:22.084Z,73.23
2023-04-06T12:20:05.185Z,72.93
2023-04-06T12:22:41.758Z,72.92
2023-04-06T12:25:09.826Z,73.01
2023-04-06T12:27:37.666Z,72.96
2023-04-06T12:30:06.486Z,73.17
2023-04-06T12:32:34.258Z,73.31
2023-04-06T12:35:02.208Z,73.64
2023-04-06T12:37:30.403Z,74.34
2023-04-06T12:39:58.296Z,74.21
2023-04-06T12:42:26.634Z,74.50
2023-04-06T12:44:54.613Z,74.75
2023-04-06T12:47:23.945Z,74.67
2023-04-06T12:49:51.831Z,74.55
2023-04-06T12:52:19.720Z,75.09
2023-04-06T12:54:50.071Z,75.71
2023-04-06T12:57:19.242Z,75.75
2023-04-06T12:59:47.432Z,75.87
2023-04-06T13:02:16.107Z,76.12
2023-04-06T13:04:44.074Z,75.93
2023-04-06T13:07:11.940Z,76.18
2023-04-06T13:09:39.760Z,76.00
2023-04-06T13:12:08.069Z,76.52
2023-04-06T13:14:36.084Z,76.91
2023-04-06T13:17:03.874Z,76.75
2023-04-06T13:19:32.577Z,77.38
2023-04-06T13:22:00.446Z,77.99
2023-04-06T13:24:28.319Z,79.06
2023-04-06T13:26:56.613Z,79.57
2023-04-06T13:29:24.476Z,79.82
2023-04-06T13:31:52.297Z,80.41
2023-04-06T13:34:20.256Z,80.75
2023-04-06T13:36:48.096Z,81.20
2023-04-06T13:39:16.269Z,80.95
2023-04-06T13:41:44.152Z,81.18
2023-04-06T13:44:11.980Z,81.22
2023-04-06T13:46:39.942Z,81.38
2023-04-06T13:49:07.781Z,81.83
2023-04-06T13:51:36.489Z,82.33
2023-04-06T13:54:04.558Z,83.21
2023-04-06T13:56:33.558Z,84.65
2023-04-06T13:59:01.814Z,85.16
2023-04-06T14:01:29.786Z,85.27
2023-04-06T14:03:57.741Z,85.72
2023-04-06T14:06:31.377Z,86.03
2023-04-06T14:09:00.558Z,87.04
2023-04-06T14:11:29.050Z,87.68
2023-04-06T14:13:58.492Z,87.90
2023-04-06T14:16:27.654Z,88.08
2023-04-06T14:18:56.361Z,88.08
2023-04-06T14:21:24.546Z,88.40
2023-04-06T14:23:53.667Z,88.26
2023-04-06T14:26:22.189Z,88.37
2023-04-06T14:28:50.466Z,88.23
2023-04-06T14:31:18.541Z,87.99
2023-04-06T14:33:46.609Z,88.05
2023-04-06T14:36:14.707Z,88.15
2023-04-06T14:38:44.171Z,88.30
2023-04-06T14:41:19.520Z,88.18
2023-04-06T14:43:48.432Z,87.74
2023-04-06T14:46:19.306Z,88.21
2023-04-06T14:48:48.221Z,88.22
2023-04-06T14:51:16.152Z,88.43
2023-04-06T14:53:44.350Z,88.20
2023-04-06T14:56:13.018Z,88.32
2023-04-06T14:58:41.025Z,88.21
2023-04-06T15:01:09.534Z,88.40
2023-04-06T15:03:37.897Z,88.67
2023-04-06T15:06:06.521Z,88.88
2023-04-06T15:08:35.486Z,88.90
2023-04-06T15:11:03.454Z,89.02
2023-04-06T15:13:31.257Z,88.91
2023-04-06T15:16:01.789Z,89.10
2023-04-06T15:18:29.943Z,89.16
2023-04-06T15:20:57.789Z,88.87
2023-04-06T15:23:25.989Z,88.87
2023-04-06T15:25:53.776Z,89.04
2023-04-06T15:28:21.747Z,89.33
2023-04-06T15:30:49.712Z,89.27
2023-04-06T15:33:18.415Z,89.85
2023-04-06T15:35:47.043Z,90.04
2023-04-06T15:38:15.888Z,90.12
2023-04-06T15:40:48.458Z,90.11
2023-04-06T15:43:16.796Z,90.12
2023-04-06T15:45:44.711Z,90.42
2023-04-06T15:48:12.783Z,90.50
2023-04-06T15:50:40.628Z,90.56
2023-04-06T15:53:10.743Z,90.47
2023-04-06T15:55:38.447Z,90.51
2023-04-06T15:58:07.599Z,90.74
2023-04-06T16:00:35.542Z,91.35
2023-04-06T16:03:03.683Z,91.51
2023-04-06T16:05:34.592Z,91.78
2023-04-06T16:08:02.669Z,92.27
2023-04-06T16:10:30.746Z,92.86
2023-04-06T16:12:58.524Z,93.29
2023-04-06T16:15:26.630Z,93.59
2023-04-06T16:17:54.436Z,94.03
2023-04-06T16:20:22.258Z,94.30
2023-04-06T16:22:50.006Z,94.61
2023-04-06T16:25:18.041Z,94.69
2023-04-06T16:27:46.295Z,94.86
2023-04-06T16:30:14.543Z,95.04
2023-04-06T16:32:43.476Z,95.40
2023-04-06T16:35:11.317Z,95.48
2023-04-06T16:37:39.614Z,95.83
2023-04-06T16:40:10.085Z,96.03
2023-04-06T16:42:37.996Z,96.26
2023-04-06T16:45:06.868Z,96.45
2023-04-06T16:47:34.923Z,96.21
2023-04-06T16:50:05.143Z,96.55
2023-04-06T16:52:35.765Z,96.83
2023-04-06T16:55:03.771Z,97.13
2023-04-06T16:57:31.615Z,97.28
2023-04-06T17:00:00.535Z,97.41
2023-04-06T17:02:28.569Z,97.46
2023-04-06T17:07:38.524Z,97.41
2023-04-06T17:10:21.447Z,97.33
2023-04-06T17:12:57.102Z,97.66
2023-04-06T17:15:26.458Z,97.48
2023-04-06T17:17:54.488Z,97.65
2023-04-06T17:20:22.450Z,97.51
2023-04-06T17:22:50.360Z,97.62
2023-04-06T17:25:18.535Z,97.86
2023-04-06T17:27:46.428Z,98.18
2023-04-06T17:30:17.137Z,98.46
2023-04-06T17:32:47.424Z,98.50
2023-04-06T17:35:18.284Z,98.71
2023-04-06T17:37:46.018Z,98.79
2023-04-06T17:40:14.331Z,98.66
2023-04-06T17:49:27.274Z,99.65
2023-04-06T17:51:55.031Z,99.97
2023-04-06T17:54:22.895Z,99.98
2023-04-06T17:56:53.514Z,99.99
2023-04-06T17:59:21.487Z,100.00
2023-04-06T18:01:49.336Z,99.92
2023-04-06T18:04:17.124Z,99.79
2023-04-06T18:06:45.429Z,99.83
2023-04-06T18:09:13.343Z,99.95
2023-04-06T18:11:42.524Z,100.00
2023-04-06T18:14:12.700Z,100.00
2023-04-06T18:16:41.354Z,100.00
2023-04-06T18:19:09.180Z,100.00
2023-04-06T18:21:37.019Z,100.00
2023-04-06T18:24:06.634Z,100.00
2023-04-06T18:26:35.731Z,100.00
2023-04-06T18:29:06.297Z,100.00
2023-04-06T18:34:07.531Z,100.00
2023-04-06T18:36:35.788Z,100.00
2023-04-06T18:39:05.130Z,100.00
2023-04-06T18:41:32.896Z,100.00
2023-04-06T18:44:01.369Z,100.00
2023-04-06T18:46:29.541Z,100.00
2023-04-06T18:48:57.425Z,100.00
2023-04-06T18:51:32.244Z,100.00
2023-04-06T18:54:04.636Z,100.00
2023-04-06T18:56:39.557Z,100.00
2023-04-06T18:59:15.246Z,100.00
2023-04-06T19:01:51.232Z,100.00
2023-04-06T19:04:21.041Z,100.00
2023-04-06T19:06:49.491Z,100.00
2023-04-06T19:09:18.441Z,100.00
2023-04-06T19:11:46.766Z,100.00
2023-04-06T19:14:17.798Z,100.00
2023-04-06T19:16:52.730Z,100.00
2023-04-06T19:19:22.193Z,100.00
2023-04-06T19:21:53.567Z,100.00
2023-04-06T19:24:24.819Z,100.00
2023-04-06T19:26:52.986Z,100.00
2023-04-06T19:29:21.268Z,100.00
2023-04-06T19:31:50.362Z,100.00
2023-04-06T19:34:18.622Z,100.00
2023-04-06T19:36:48.411Z,100.00
2023-04-06T19:39:17.775Z,100.00
2023-04-06T19:41:45.813Z,100.00
2023-04-06T19:44:13.837Z,100.00
2023-04-06T19:46:42.893Z,100.00
2023-04-06T19:49:10.923Z,100.00
2023-04-06T19:51:38.902Z,100.00
2023-04-06T19:54:08.376Z,100.00
2023-04-06T19:56:36.158Z,100.00
2023-04-06T19:59:04.024Z,100.00
2023-04-06T20:01:31.910Z,100.00
2023-04-06T20:04:00.036Z,100.00
2023-04-06T20:06:29.902Z,100.00
2023-04-06T20:08:57.659Z,100.00
2023-04-06T20:11:25.449Z,100.00
2023-04-06T20:13:53.351Z,100.00
2023-04-06T20:16:22.170Z,100.00
2023-04-06T20:18:49.946Z,100.00
2023-04-06T20:21:17.763Z,100.00
2023-04-06T20:23:45.599Z,100.00
2023-04-06T20:26:13.260Z,100.00
2023-04-06T20:28:41.455Z,100.00
2023-04-06T20:31:09.416Z,100.00
2023-04-06T20:33:37.293Z,100.00
2023-04-06T20:36:05.266Z,100.00
2023-04-06T20:38:33.950Z,100.00
2023-04-06T20:41:02.160Z,100.00
2023-04-06T20:43:31.597Z,100.00
2023-04-06T20:45:59.856Z,100.00
2023-04-06T20:48:30.714Z,100.00
2023-04-06T20:50:59.790Z,100.00
2023-04-06T20:53:27.873Z,100.00
2023-04-06T20:55:55.598Z,100.00
2023-04-06T20:58:24.695Z,100.00
2023-04-06T21:00:52.677Z,100.00
2023-04-06T21:03:20.716Z,100.00
2023-04-06T21:05:57.444Z,100.00
2023-04-06T21:08:25.281Z,100.00
2023-04-06T21:10:52.966Z,100.00
2023-04-06T21:13:20.778Z,100.00
2023-04-06T21:15:48.910Z,100.00
2023-04-06T21:18:16.834Z,100.00
2023-04-06T21:20:44.778Z,100.00
2023-04-06T21:23:12.671Z,100.00
2023-04-06T21:25:40.607Z,100.00
2023-04-06T21:28:08.460Z,100.00
2023-04-06T21:30:37.330Z,100.00
2023-04-06T21:33:06.069Z,100.00
2023-04-06T21:35:33.952Z,100.00
2023-04-06T21:38:01.668Z,100.00
2023-04-06T21:40:29.541Z,100.00
2023-04-06T21:42:57.598Z,100.00
2023-04-06T21:45:25.404Z,100.00
2023-04-06T21:47:53.151Z,100.00
2023-04-06T21:50:21.214Z,100.00
2023-04-06T21:52:49.060Z,100.00
2023-04-06T21:55:16.976Z,100.00
2023-04-06T21:57:46.232Z,100.00
2023-04-06T22:00:15.098Z,100.00
2023-04-06T22:02:43.019Z,100.00
2023-04-06T22:05:11.327Z,100.00
2023-04-06T22:07:39.135Z,100.00
2023-04-06T22:10:07.329Z,100.00
2023-04-06T22:12:35.298Z,100.00
2023-04-06T22:15:03.124Z,100.00
2023-04-06T22:17:31.647Z,100.00
2023-04-06T22:19:59.506Z,100.00
2023-04-06T22:22:27.279Z,100.00
2023-04-06T22:24:56.713Z,100.00
2023-04-06T22:27:24.610Z,100.00
2023-04-06T22:29:52.560Z,100.00
2023-04-06T22:32:20.418Z,100.00
2023-04-06T22:34:48.296Z,100.00
2023-04-06T22:37:16.042Z,100.00
2023-04-06T22:39:44.112Z,100.00
2023-04-06T22:42:11.894Z,100.00
2023-04-06T22:44:39.600Z,100.00
2023-04-06T22:47:07.401Z,100.00
2023-04-06T22:49:35.194Z,100.00
2023-04-06T22:52:02.951Z,100.00
2023-04-06T22:54:30.946Z,100.00
2023-04-06T22:56:58.708Z,100.00
2023-04-06T22:59:26.423Z,100.00
2023-04-06T23:01:54.434Z,100.00
2023-04-06T23:04:22.841Z,100.00
2023-04-06T23:06:51.152Z,100.00
2023-04-06T23:09:19.295Z,100.00
2023-04-06T23:11:47.264Z,100.00
2023-04-06T23:14:16.050Z,100.00
2023-04-06T23:16:44.023Z,100.00
2023-04-06T23:19:11.889Z,100.00
2023-04-06T23:21:39.771Z,100.00
2023-04-06T23:24:07.542Z,100.00
2023-04-06T23:26:35.370Z,100.00
2023-04-06T23:29:03.109Z,100.00
2023-04-06T23:31:31.090Z,100.00
2023-04-06T23:33:58.974Z,100.00
2023-04-06T23:36:27.031Z,100.00
2023-04-06T23:38:56.422Z,100.00
2023-04-06T23:41:24.622Z,100.00
2023-04-06T23:43:52.274Z,100.00
2023-04-06T23:46:21.630Z,100.00
2023-04-06T23:48:49.502Z,100.00
2023-04-06T23:51:17.412Z,100.00
2023-04-06T23:53:46.363Z,100.00
2023-04-06T23:56:14.270Z,100.00
2023-04-06T23:58:41.926Z,100.00
